Time;durP1;ratioP1;P1;durP2;ratioP2;P2;SDS_P1;SDS_P2;PMS_P1;PMS_P2;Temp;Humidity;BMP_temperature;BMP_pressure;BME280_temperature;BME280_humidity;BME280_pressure;Samples;Min_cycle;Max_cycle;Signal;HPM_P1;HPM_P2
2023/03/09 00:00:53;;;;;;;4.17;1.40;;;;;;;15.64;54.18;94586.38;10295854;28;20455;-32
2023/03/09 00:05:56;;;;;;;5.07;1.17;;;;;;;15.65;54.87;94580.47;10296330;28;20533;-31
2023/03/09 00:10:56;;;;;;;3.35;1.20;;;;;;;15.66;53.97;94574.53;10294940;28;20118;-31
2023/03/09 00:16:06;;;;;;;4.63;1.27;;;;;;;15.68;54.42;94580.38;10299873;28;20483;-31
2023/03/09 00:21:06;;;;;;;3.35;1.40;;;;;;;15.61;54.30;94556.16;10292103;28;20510;-32
2023/03/09 00:26:09;;;;;;;6.38;1.90;;;;;;;15.66;54.46;94609.84;10291325;28;20078;-32
2023/03/09 00:31:09;;;;;;;3.75;1.40;;;;;;;15.65;54.66;94613.25;10291384;28;20042;-31
2023/03/09 00:36:13;;;;;;;4.47;1.60;;;;;;;15.66;54.08;94635.06;10294873;28;20043;-31
2023/03/09 00:41:14;;;;;;;3.17;1.15;;;;;;;15.69;55.18;94660.22;10296047;28;20045;-32
2023/03/09 00:46:15;;;;;;;4.00;2.13;;;;;;;15.72;55.14;94654.28;10273174;28;20034;-32
2023/03/09 00:51:16;;;;;;;3.00;1.15;;;;;;;15.72;54.92;94650.06;10291475;28;20065;-31
2023/03/09 00:56:20;;;;;;;2.97;1.00;;;;;;;15.72;54.45;94651.75;10293789;28;20038;-32
2023/03/09 01:01:21;;;;;;;6.40;1.23;;;;;;;15.68;54.14;94635.06;10298376;28;20045;-31
2023/03/09 01:06:22;;;;;;;4.00;1.60;;;;;;;15.63;54.53;94627.59;10296491;28;20050;-32
2023/03/09 01:11:24;;;;;;;3.30;1.20;;;;;;;15.63;53.83;94630.09;10295058;28;20038;-31
2023/03/09 01:16:25;;;;;;;2.58;1.00;;;;;;;15.65;54.59;94598.13;10289252;28;20118;-32
2023/03/09 01:21:25;;;;;;;4.03;2.63;;;;;;;15.64;54.54;94606.53;10276643;28;20469;-32
2023/03/09 01:26:25;;;;;;;2.60;1.10;;;;;;;15.64;54.66;94636.81;10272017;28;20292;-31
2023/03/09 01:31:26;;;;;;;1.42;0.90;;;;;;;15.64;54.73;94646.91;10289338;28;20031;-32
2023/03/09 01:36:26;;;;;;;3.77;1.63;;;;;;;15.64;54.74;94630.91;10293245;28;20043;-32
2023/03/09 01:41:27;;;;;;;2.30;1.20;;;;;;;15.66;53.99;94611.53;10294784;28;20058;-31
2023/03/09 01:46:33;;;;;;;2.83;1.00;;;;;;;15.62;54.36;94605.72;10288203;28;20282;-31
2023/03/09 01:51:41;;;;;;;4.47;1.00;;;;;;;15.64;54.39;94626.72;10279639;28;20298;-31
2023/03/09 01:56:44;;;;;;;3.20;0.90;;;;;;;15.63;54.45;94611.63;10270670;28;20043;-31
2023/03/09 02:01:45;;;;;;;3.17;0.98;;;;;;;15.67;54.65;94611.50;10271210;28;20039;-31
2023/03/09 02:06:46;;;;;;;3.22;1.15;;;;;;;15.69;54.91;94603.91;10273692;28;20025;-32
2023/03/09 02:11:47;;;;;;;2.53;1.00;;;;;;;15.72;54.97;94583.66;10275947;28;20054;-32
2023/03/09 02:16:48;;;;;;;2.42;0.95;;;;;;;15.72;53.88;94584.50;10267506;28;20030;-31
2023/03/09 02:21:53;;;;;;;2.50;1.20;;;;;;;15.67;54.28;94586.28;10271079;28;20034;-31
2023/03/09 02:26:59;;;;;;;2.15;1.05;;;;;;;15.66;54.29;94609.00;10270382;28;20023;-32
2023/03/09 02:31:59;;;;;;;3.10;1.13;;;;;;;15.68;53.40;94635.06;10270194;28;20081;-32
2023/03/09 02:37:00;;;;;;;4.65;1.33;;;;;;;15.68;53.96;94633.34;10291649;28;20081;-31
2023/03/09 02:42:02;;;;;;;4.15;1.25;;;;;;;15.65;54.55;94648.56;10282591;28;20041;-32
2023/03/09 02:47:12;;;;;;;2.65;1.33;;;;;;;15.65;54.15;94716.66;10271398;28;20026;-32
2023/03/09 02:52:13;;;;;;;2.25;0.60;;;;;;;15.66;54.09;94715.78;10303631;28;20101;-31
2023/03/09 02:57:15;;;;;;;2.63;0.70;;;;;;;15.66;54.45;94735.97;10292720;28;20034;-31
2023/03/09 03:02:15;;;;;;;6.13;1.20;;;;;;;15.63;53.97;94758.72;10303880;28;20058;-31
2023/03/09 03:07:16;;;;;;;1.30;0.80;;;;;;;15.65;54.00;94781.38;10297643;28;20031;-32
2023/03/09 03:12:17;;;;;;;1.60;1.02;;;;;;;15.64;54.51;94777.19;10300325;28;20035;-31
2023/03/09 03:17:18;;;;;;;2.75;1.40;;;;;;;15.63;54.13;94791.50;10276393;28;20035;-31
2023/03/09 03:22:19;;;;;;;2.85;1.25;;;;;;;15.64;54.40;94808.31;10307734;28;20406;-32
2023/03/09 03:27:19;;;;;;;3.05;1.00;;;;;;;15.70;55.28;94819.97;10311360;28;20023;-31
2023/03/09 03:32:20;;;;;;;1.95;0.93;;;;;;;15.71;55.35;94855.22;10284345;28;20037;-31
2023/03/09 03:37:20;;;;;;;3.53;0.93;;;;;;;15.70;54.75;94858.59;10290826;28;20043;-31
2023/03/09 03:42:23;;;;;;;1.67;0.55;;;;;;;15.69;53.54;94872.09;10283877;28;20498;-32
2023/03/09 03:47:24;;;;;;;2.67;1.42;;;;;;;15.65;53.89;94885.63;10292844;28;20086;-32
2023/03/09 03:52:24;;;;;;;2.55;0.80;;;;;;;15.64;54.51;94878.09;10300670;28;20046;-31
2023/03/09 03:57:25;;;;;;;3.53;0.80;;;;;;;15.62;53.94;94888.19;10292913;28;20657;-31
2023/03/09 04:02:27;;;;;;;1.63;0.68;;;;;;;15.65;54.13;94899.91;10273869;28;20042;-32
2023/03/09 04:07:27;;;;;;;3.53;0.77;;;;;;;15.63;54.25;94915.09;10289800;28;20027;-32
2023/03/09 04:12:29;;;;;;;3.08;1.10;;;;;;;15.61;54.44;94916.78;10299304;28;20407;-32
2023/03/09 04:17:32;;;;;;;1.63;0.80;;;;;;;15.61;54.02;94926.06;10274332;28;20039;-32
2023/03/09 04:22:33;;;;;;;3.00;1.00;;;;;;;15.63;53.93;94936.94;10282699;28;20037;-31
2023/03/09 04:27:35;;;;;;;0.88;0.50;;;;;;;15.65;53.65;94961.28;10280796;28;20027;-32
2023/03/09 04:32:40;;;;;;;4.88;1.25;;;;;;;15.65;53.67;94970.53;10289908;28;20035;-31
2023/03/09 04:37:41;;;;;;;1.95;0.82;;;;;;;15.64;53.54;94984.84;10302958;28;20042;-31
2023/03/09 04:42:41;;;;;;;2.53;1.00;;;;;;;15.61;54.01;94992.47;10300495;28;20519;-31
2023/03/09 04:47:43;;;;;;;0.85;0.65;;;;;;;15.67;53.68;94989.84;10292080;28;20035;-31
2023/03/09 04:52:44;;;;;;;2.70;0.93;;;;;;;15.71;54.52;95015.84;10278869;28;20027;-31
2023/03/09 04:57:44;;;;;;;2.05;0.82;;;;;;;15.71;54.53;95016.66;10298864;28;20046;-31
2023/03/09 05:02:48;;;;;;;2.03;0.80;;;;;;;15.74;53.21;95028.41;10274551;28;20391;-32
2023/03/09 05:07:48;;;;;;;2.65;1.25;;;;;;;15.78;52.92;95043.47;10276205;28;20093;-32
2023/03/09 05:12:49;;;;;;;1.23;0.60;;;;;;;15.78;53.07;95048.50;10294114;28;20065;-31
2023/03/09 05:17:53;;;;;;;1.88;1.13;;;;;;;15.81;52.67;95068.66;10279894;28;20031;-31
2023/03/09 05:22:54;;;;;;;2.13;0.60;;;;;;;15.82;53.02;95067.78;10278457;28;20566;-31
2023/03/09 05:27:55;;;;;;;3.88;0.80;;;;;;;15.82;53.25;95079.56;10295173;28;20026;-31
2023/03/09 05:32:57;;;;;;;3.88;1.17;;;;;;;15.81;53.30;95083.81;10270244;28;20522;-31
2023/03/09 05:37:59;;;;;;;1.05;0.70;;;;;;;15.81;53.06;95093.88;10293437;28;20125;-30
2023/03/09 05:43:01;;;;;;;1.35;0.55;;;;;;;15.80;53.61;95109.88;10290276;28;20391;-32
2023/03/09 05:48:02;;;;;;;6.65;1.00;;;;;;;15.81;53.89;95124.16;10302095;28;20033;-32
2023/03/09 05:53:04;;;;;;;4.15;1.08;;;;;;;15.81;53.34;95129.22;10296132;28;20030;-32
2023/03/09 05:58:05;;;;;;;4.00;1.20;;;;;;;15.80;54.24;95137.66;10314645;28;20498;-32
2023/03/09 06:03:05;;;;;;;7.97;1.42;;;;;;;15.81;54.63;95154.44;10295883;28;20040;-31
2023/03/09 06:08:18;;;;;;;3.03;1.27;;;;;;;15.77;54.38;95142.72;10294826;28;20038;-31
2023/03/09 06:13:22;;;;;;;4.22;1.55;;;;;;;15.80;55.57;95151.94;10331257;28;20025;-31
2023/03/09 06:18:23;;;;;;;7.40;1.45;;;;;;;15.76;55.48;95145.28;10316457;28;20030;-32
2023/03/09 06:23:23;;;;;;;2.95;1.10;;;;;;;15.83;55.04;95157.78;10345310;28;20034;-31
2023/03/09 06:28:24;;;;;;;5.03;1.15;;;;;;;15.85;54.71;95156.06;10337012;28;20030;-31
2023/03/09 06:33:25;;;;;;;5.88;1.90;;;;;;;15.82;53.34;95183.84;10324131;28;20049;-31
2023/03/09 06:38:31;;;;;;;9.48;1.70;;;;;;;15.81;55.24;95183.88;10320486;28;20033;-30
2023/03/09 06:43:33;;;;;;;8.82;1.40;;;;;;;15.80;55.55;95188.09;10321326;28;20045;-31
2023/03/09 06:48:34;;;;;;;5.85;2.45;;;;;;;15.84;52.72;95198.97;10347157;28;20030;-32
2023/03/09 06:53:35;;;;;;;14.93;2.78;;;;;;;15.81;55.19;95196.50;10314612;28;20410;-32
2023/03/09 06:58:41;;;;;;;9.60;2.10;;;;;;;15.81;55.39;95199.84;10323812;28;20035;-32
2023/03/09 07:03:41;;;;;;;22.17;4.47;;;;;;;15.80;55.27;95215.84;10344519;28;20031;-32
2023/03/09 07:08:42;;;;;;;16.10;2.88;;;;;;;15.76;55.35;95216.72;10329450;28;20307;-31
2023/03/09 07:13:42;;;;;;;12.70;2.35;;;;;;;15.80;55.26;95243.59;10345904;28;20042;-31
2023/03/09 07:18:42;;;;;;;16.90;2.00;;;;;;;15.81;54.93;95245.28;10350904;28;20061;-31
2023/03/09 07:23:43;;;;;;;18.90;1.67;;;;;;;15.83;53.71;95252.81;10338970;28;20034;-31
2023/03/09 07:28:43;;;;;;;6.10;2.07;;;;;;;15.81;55.30;95275.56;10305119;28;20297;-32
2023/03/09 07:33:47;;;;;;;7.70;2.43;;;;;;;15.79;55.16;95286.50;10354290;28;20280;-32
2023/03/09 07:38:49;;;;;;;3.72;1.35;;;;;;;15.81;55.51;95300.78;10340389;28;20406;-31
2023/03/09 07:43:49;;;;;;;5.80;1.55;;;;;;;15.81;55.13;95304.97;10339646;28;20034;-31
2023/03/09 07:48:55;;;;;;;5.22;1.50;;;;;;;15.81;55.35;95300.78;10299278;28;20026;-32
2023/03/09 07:53:55;;;;;;;7.55;1.42;;;;;;;15.82;54.63;95307.50;10329430;28;20041;-31
2023/03/09 07:58:55;;;;;;;7.55;1.73;;;;;;;15.85;53.30;95332.69;10344641;28;20121;-31
2023/03/09 08:03:56;;;;;;;4.90;1.20;;;;;;;15.88;53.66;95352.81;10333617;28;20033;-31
2023/03/09 08:08:56;;;;;;;5.87;1.43;;;;;;;15.88;54.29;95337.69;10354458;28;20647;-29
2023/03/09 08:13:59;;;;;;;3.53;1.53;;;;;;;15.87;54.40;95351.16;10350800;28;20049;-29
2023/03/09 08:18:59;;;;;;;6.15;1.17;;;;;;;15.83;54.32;95369.72;10318850;28;20030;-30
2023/03/09 08:24:00;;;;;;;4.00;1.27;;;;;;;15.85;54.22;95377.28;10344565;28;20023;-29
2023/03/09 08:29:00;;;;;;;6.43;1.50;;;;;;;15.85;54.04;95378.09;10341385;28;20026;-29
2023/03/09 08:34:02;;;;;;;7.17;1.60;;;;;;;15.82;54.23;95378.16;10362184;28;20354;-29
2023/03/09 08:39:02;;;;;;;3.55;1.60;;;;;;;15.85;53.57;95400.00;10343489;28;20575;-29
2023/03/09 08:44:03;;;;;;;6.32;1.67;;;;;;;15.84;53.77;95393.25;10337633;28;20050;-29
2023/03/09 08:49:03;;;;;;;5.18;1.77;;;;;;;15.84;53.80;95396.63;10345889;28;20041;-29
2023/03/09 08:54:03;;;;;;;7.10;2.13;;;;;;;15.84;53.55;95404.19;10332548;28;20490;-29
2023/03/09 08:59:04;;;;;;;6.87;2.10;;;;;;;15.90;53.61;95406.66;10318331;28;20042;-29
2023/03/09 09:04:04;;;;;;;5.73;2.30;;;;;;;15.86;54.60;95416.81;10349020;28;20303;-29
2023/03/09 09:09:05;;;;;;;6.13;1.50;;;;;;;15.89;54.52;95429.38;10354865;28;20585;-29
2023/03/09 09:14:05;;;;;;;4.87;1.90;;;;;;;15.93;53.97;95425.97;10337739;28;20040;-29
2023/03/09 09:19:07;;;;;;;6.10;1.77;;;;;;;15.94;54.71;95438.56;10349701;28;20285;-30
2023/03/09 09:24:07;;;;;;;9.50;1.88;;;;;;;15.94;55.06;95453.72;10342988;28;20313;-29
2023/03/09 09:29:08;;;;;;;5.97;1.80;;;;;;;15.91;55.42;95438.59;10327031;28;20119;-29
2023/03/09 09:34:08;;;;;;;10.47;2.53;;;;;;;15.87;54.78;95447.03;10338355;28;20043;-29
2023/03/09 09:39:13;;;;;;;4.13;1.40;;;;;;;15.89;55.32;95447.88;10344415;28;20038;-30
2023/03/09 09:44:45;;;;;;;4.53;1.48;;;;;;;15.90;55.23;95448.72;10331923;28;20088;-29
2023/03/09 09:49:49;;;;;;;7.78;1.67;;;;;;;15.93;53.98;95441.94;10313048;28;20407;-29
2023/03/09 09:55:07;;;;;;;6.20;2.28;;;;;;;15.96;53.94;95446.94;10349469;28;20037;-29
2023/03/09 10:00:24;;;;;;;16.55;2.33;;;;;;;15.96;55.57;95436.84;10327496;28;20031;-30
2023/03/09 10:06:02;;;;;;;7.95;1.80;;;;;;;15.99;55.13;95443.56;10320462;28;20025;-29
2023/03/09 10:11:11;;;;;;;12.63;3.13;;;;;;;16.01;53.51;95447.75;10342843;28;20080;-29
2023/03/09 10:16:28;;;;;;;4.78;1.33;;;;;;;16.05;54.78;95439.31;10338095;28;20062;-29
2023/03/09 10:21:44;;;;;;;16.90;2.20;;;;;;;16.14;55.74;95441.72;10340615;28;20093;-29
2023/03/09 10:27:00;;;;;;;11.38;1.98;;;;;;;16.20;57.12;95444.16;10347251;28;20038;-31
2023/03/09 10:32:06;;;;;;;10.38;1.58;;;;;;;16.18;56.86;95453.44;10329182;28;20027;-30
2023/03/09 10:37:19;;;;;;;9.27;2.88;;;;;;;16.17;53.89;95461.88;10332932;28;20085;-28
2023/03/09 10:42:26;;;;;;;7.28;2.22;;;;;;;16.11;52.52;95456.88;10343468;28;20046;-28
2023/03/09 10:47:26;;;;;;;;;;;;;;;16.04;51.87;95460.31;10314119;28;20030;-29
2023/03/09 10:52:27;;;;;;;6.13;3.08;;;;;;;15.98;51.53;95473.03;10321499;28;20342;-29
2023/03/09 10:57:31;;;;;;;9.32;2.97;;;;;;;15.97;50.69;95466.31;10302981;28;20035;-29
2023/03/09 11:02:35;;;;;;;5.10;1.95;;;;;;;15.97;50.89;95462.94;10313490;28;20120;-29
2023/03/09 11:07:35;;;;;;;5.65;2.10;;;;;;;16.00;51.27;95473.00;10339474;28;20514;-28
2023/03/09 11:12:45;;;;;;;7.00;2.38;;;;;;;16.03;50.65;95483.91;10334259;28;20066;-30
2023/03/09 11:17:46;;;;;;;5.13;1.67;;;;;;;16.05;51.36;95487.25;10346290;28;20061;-29
2023/03/09 11:23:00;;;;;;;9.40;2.20;;;;;;;16.06;51.33;95476.31;10349796;28;20042;-31
2023/03/09 11:28:12;;;;;;;12.48;2.60;;;;;;;16.05;53.22;95472.13;10352814;28;20030;-29
2023/03/09 11:33:16;;;;;;;5.13;1.77;;;;;;;16.09;52.61;95488.91;10341055;28;20517;-29
2023/03/09 11:38:19;;;;;;;4.07;1.60;;;;;;;16.07;53.06;95462.84;10357043;28;20038;-28
2023/03/09 11:43:26;;;;;;;12.80;2.33;;;;;;;16.22;56.13;95469.41;10345373;28;20491;-29
2023/03/09 11:48:35;;;;;;;8.20;2.00;;;;;;;16.31;57.84;95444.88;10326935;28;20027;-30
2023/03/09 11:54:06;;;;;;;10.88;3.38;;;;;;;16.35;56.08;95433.88;10336857;28;20045;-30
2023/03/09 11:59:38;;;;;;;14.20;2.85;;;;;;;16.26;53.52;95436.53;10309460;28;20046;-29
2023/03/09 12:04:39;;;;;;;8.15;1.80;;;;;;;16.23;53.84;95436.56;10341174;28;20065;-29
2023/03/09 12:10:04;;;;;;;14.05;3.88;;;;;;;16.22;53.90;95429.84;10320206;28;20061;-29
2023/03/09 12:15:15;;;;;;;17.40;2.75;;;;;;;16.18;53.83;95428.19;10357390;28;20037;-28
2023/03/09 12:20:24;;;;;;;6.85;1.95;;;;;;;16.20;53.67;95426.47;10354673;28;20034;-29
2023/03/09 12:25:26;;;;;;;8.65;2.35;;;;;;;16.22;53.50;95408.81;10349470;28;20023;-29
2023/03/09 12:30:50;;;;;;;12.45;1.88;;;;;;;16.22;54.06;95399.56;10335853;28;20053;-29
2023/03/09 12:35:53;;;;;;;6.63;2.45;;;;;;;16.17;53.23;95396.22;10348807;28;20033;-29
2023/03/09 12:40:54;;;;;;;9.27;2.20;;;;;;;16.18;53.06;95392.84;10324875;28;20038;-29
2023/03/09 12:45:54;;;;;;;10.13;2.33;;;;;;;16.20;53.24;95401.22;10370386;28;20505;-29
2023/03/09 12:51:01;;;;;;;11.97;2.40;;;;;;;16.22;52.83;95383.56;10332033;28;20039;-29
2023/03/09 12:56:18;;;;;;;5.75;1.70;;;;;;;16.22;52.78;95388.59;10328828;28;20352;-29
2023/03/09 13:01:18;;;;;;;10.48;2.22;;;;;;;16.22;52.71;95383.56;10330663;28;20109;-29
2023/03/09 13:06:43;;;;;;;8.18;2.20;;;;;;;16.38;55.67;95368.19;10332920;28;20117;-29
2023/03/09 13:12:15;;;;;;;11.35;2.53;;;;;;;16.47;55.59;95360.53;10345307;28;20054;-29
2023/03/09 13:17:32;;;;;;;5.88;1.38;;;;;;;16.41;54.53;95380.81;10347953;28;20121;-29
2023/03/09 13:22:36;;;;;;;8.35;1.50;;;;;;;16.29;52.93;95373.34;10329313;28;20038;-29
2023/03/09 13:27:38;;;;;;;5.45;1.58;;;;;;;16.26;52.83;95378.44;10343299;28;20102;-30
2023/03/09 13:32:57;;;;;;;7.75;1.60;;;;;;;16.25;52.82;95369.19;10320396;28;20041;-28
2023/03/09 13:37:59;;;;;;;5.90;1.17;;;;;;;16.22;52.58;95355.78;10342232;28;20041;-29
2023/03/09 13:43:16;;;;;;;5.40;1.60;;;;;;;16.22;52.50;95358.31;10338679;28;20143;-28
2023/03/09 13:48:16;;;;;;;;;;;;;;;16.20;52.20;95360.84;10312714;28;20026;-29
2023/03/09 13:53:17;;;;;;;3.43;1.20;;;;;;;16.19;51.88;95344.03;10303558;28;20297;-29
2023/03/09 13:58:21;;;;;;;4.47;1.52;;;;;;;16.18;51.66;95334.78;10337151;28;20509;-29
2023/03/09 14:03:24;;;;;;;4.03;1.42;;;;;;;16.17;51.33;95338.16;10331118;28;20056;-30
2023/03/09 14:08:28;;;;;;;3.85;1.38;;;;;;;16.17;51.61;95340.69;10347206;28;20032;-29
2023/03/09 14:13:28;;;;;;;4.18;1.30;;;;;;;16.19;51.54;95333.09;10314901;28;20045;-29
2023/03/09 14:18:35;;;;;;;3.53;1.13;;;;;;;16.18;50.89;95318.81;10338046;28;20026;-29
2023/03/09 14:23:41;;;;;;;3.30;1.00;;;;;;;16.22;53.38;95313.72;10324487;28;20293;-29
2023/03/09 14:29:01;;;;;;;4.32;1.30;;;;;;;16.40;53.97;95312.63;10347630;28;20040;-30
2023/03/09 14:34:02;;;;;;;2.63;1.30;;;;;;;16.50;53.88;95299.84;10302483;28;20131;-29
2023/03/09 14:39:24;;;;;;;1.73;1.20;;;;;;;16.38;52.80;95300.00;10334895;28;20041;-30
2023/03/09 14:44:40;;;;;;;5.40;1.40;;;;;;;16.26;51.65;95295.13;10336397;28;20038;-30
2023/03/09 14:49:40;;;;;;;2.83;1.02;;;;;;;16.21;51.25;95284.25;10342542;28;20101;-28
2023/03/09 14:54:41;;;;;;;2.85;1.10;;;;;;;16.19;51.18;95278.38;10338262;28;20035;-30
2023/03/09 14:59:42;;;;;;;3.22;0.88;;;;;;;16.17;50.57;95280.09;10318089;28;20041;-28
2023/03/09 15:04:45;;;;;;;3.58;1.00;;;;;;;16.16;50.53;95267.50;10352910;28;20030;-29
2023/03/09 15:09:45;;;;;;;2.65;1.02;;;;;;;16.14;50.23;95267.53;10371557;28;20492;-29
2023/03/09 15:14:47;;;;;;;1.00;0.67;;;;;;;16.15;50.39;95268.34;10340171;28;20026;-29
2023/03/09 15:19:49;;;;;;;1.50;0.70;;;;;;;16.12;50.14;95258.31;10339777;28;20045;-29
2023/03/09 15:24:50;;;;;;;2.83;0.80;;;;;;;16.13;50.11;95262.50;10301158;28;20026;-29
2023/03/09 15:29:50;;;;;;;2.78;1.13;;;;;;;16.11;50.17;95249.88;10334769;28;20026;-29
2023/03/09 15:34:50;;;;;;;1.63;0.90;;;;;;;16.11;49.69;95244.84;10319667;28;20094;-29
2023/03/09 15:39:51;;;;;;;2.33;0.80;;;;;;;16.13;49.31;95235.53;10360140;28;20132;-29
2023/03/09 15:44:51;;;;;;;3.13;1.00;;;;;;;16.21;52.07;95231.22;10325782;28;20093;-29
2023/03/09 15:49:51;;;;;;;2.40;0.97;;;;;;;16.37;51.97;95217.53;10304589;28;20039;-29
2023/03/09 15:54:52;;;;;;;2.07;0.90;;;;;;;16.48;52.56;95210.66;10332887;28;20547;-29
2023/03/09 15:59:55;;;;;;;2.67;0.80;;;;;;;16.38;50.68;95206.56;10331043;28;20456;-28
2023/03/09 16:04:55;;;;;;;1.52;0.70;;;;;;;16.29;49.76;95193.25;10352339;28;20033;-30
2023/03/09 16:09:56;;;;;;;2.90;0.63;;;;;;;16.23;49.75;95186.59;10335777;28;20395;-29
2023/03/09 16:14:56;;;;;;;1.50;0.50;;;;;;;16.21;49.47;95193.34;10362721;28;20037;-30
2023/03/09 16:19:56;;;;;;;1.53;0.50;;;;;;;16.20;49.42;95189.16;10331540;28;20046;-28
2023/03/09 16:24:57;;;;;;;1.42;0.75;;;;;;;16.18;48.93;95180.78;10348108;28;20405;-29
2023/03/09 16:29:57;;;;;;;2.10;0.80;;;;;;;16.17;48.99;95173.22;10355496;28;20058;-29
2023/03/09 16:34:58;;;;;;;2.17;0.80;;;;;;;16.13;48.86;95169.91;10326430;28;20042;-28
2023/03/09 16:39:58;;;;;;;1.38;0.70;;;;;;;16.16;49.00;95169.88;10317455;28;20034;-30
2023/03/09 16:44:58;;;;;;;2.90;0.73;;;;;;;16.15;48.72;95167.38;10314650;28;20117;-29
2023/03/09 16:50:01;;;;;;;1.85;0.80;;;;;;;16.18;48.77;95159.78;10312294;28;20450;-29
2023/03/09 16:55:04;;;;;;;1.85;0.50;;;;;;;16.18;48.99;95154.72;10329518;28;20053;-29
2023/03/09 17:00:08;;;;;;;2.05;0.80;;;;;;;16.15;48.77;95153.06;10331893;28;20407;-30
2023/03/09 17:05:11;;;;;;;1.75;0.60;;;;;;;16.17;51.33;95158.91;10329260;28;20072;-29
2023/03/09 17:10:16;;;;;;;5.40;1.17;;;;;;;16.34;56.19;95162.00;10317997;28;20387;-29
2023/03/09 17:15:16;;;;;;;9.82;1.50;;;;;;;16.42;56.32;95159.38;10322236;28;20496;-29
2023/03/09 17:20:18;;;;;;;2.15;0.80;;;;;;;16.37;50.71;95156.13;10336623;28;20054;-29
2023/03/09 17:25:21;;;;;;;2.38;0.65;;;;;;;16.32;50.05;95148.59;10322861;28;20041;-29
2023/03/09 17:30:22;;;;;;;1.63;0.50;;;;;;;16.29;49.65;95151.13;10334338;28;20052;-29
2023/03/09 17:35:23;;;;;;;17.25;2.40;;;;;;;16.22;51.22;95142.03;10311358;28;20037;-28
2023/03/09 17:40:23;;;;;;;6.35;1.40;;;;;;;16.04;49.45;95137.25;10320992;28;20044;-29
2023/03/09 17:45:23;;;;;;;9.33;2.80;;;;;;;15.83;49.76;95142.63;10315462;28;20426;-29
2023/03/09 17:50:24;;;;;;;9.47;2.53;;;;;;;16.00;49.09;95152.44;10304057;28;20043;-29
2023/03/09 17:55:24;;;;;;;6.40;1.83;;;;;;;16.08;48.33;95154.03;10331382;28;20467;-29
2023/03/09 18:00:25;;;;;;;10.73;2.78;;;;;;;16.12;48.48;95150.56;10322190;28;20458;-29
2023/03/09 18:05:25;;;;;;;3.60;1.58;;;;;;;16.11;48.81;95151.44;10340133;28;20049;-29
2023/03/09 18:10:25;;;;;;;7.50;1.60;;;;;;;16.19;52.74;95167.28;10339217;28;20426;-29
2023/03/09 18:15:29;;;;;;;7.17;1.57;;;;;;;16.22;49.41;95152.13;10324341;28;21335;-28
2023/03/09 18:20:29;;;;;;;8.15;1.77;;;;;;;16.30;49.06;95145.22;10319740;28;20048;-32
2023/03/09 18:25:31;;;;;;;3.57;1.57;;;;;;;16.32;49.75;95158.69;10321564;28;20034;-31
2023/03/09 18:30:31;;;;;;;8.60;1.60;;;;;;;16.41;52.67;95145.94;10326840;28;20030;-31
2023/03/09 18:35:32;;;;;;;11.55;2.40;;;;;;;16.47;55.14;95143.31;10329636;28;20059;-32
2023/03/09 18:40:32;;;;;;;7.30;2.10;;;;;;;16.43;53.62;95141.69;10315370;28;20401;-32
2023/03/09 18:45:34;;;;;;;7.67;1.97;;;;;;;16.41;51.05;95125.72;10336780;28;20281;-32
2023/03/09 18:50:34;;;;;;;10.95;1.58;;;;;;;16.42;52.97;95119.81;10331019;28;20172;-31
2023/03/09 18:55:38;;;;;;;11.48;1.63;;;;;;;16.42;51.59;95108.88;10339936;28;20030;-32
2023/03/09 19:00:39;;;;;;;6.07;1.20;;;;;;;16.41;50.60;95109.72;10334903;28;20509;-31
2023/03/09 19:05:39;;;;;;;5.30;1.57;;;;;;;16.39;50.78;95103.88;10340323;28;20029;-31
2023/03/09 19:10:40;;;;;;;4.85;1.08;;;;;;;16.36;49.99;95102.19;10328416;28;20133;-31
2023/03/09 19:15:43;;;;;;;3.55;1.10;;;;;;;16.38;49.89;95103.03;10342314;28;20046;-31
2023/03/09 19:20:44;;;;;;;6.90;1.25;;;;;;;16.37;49.82;95111.47;10315381;28;20556;-32
2023/03/09 19:25:52;;;;;;;4.28;1.10;;;;;;;16.35;49.70;95098.00;10340173;28;20293;-32
2023/03/09 19:31:02;;;;;;;4.70;1.75;;;;;;;16.35;49.75;95105.59;10301084;28;20045;-31
2023/03/09 19:36:04;;;;;;;3.95;1.13;;;;;;;16.33;49.55;95094.69;10287283;28;20406;-31
2023/03/09 19:41:06;;;;;;;4.30;1.45;;;;;;;16.35;49.67;95077.81;10317795;28;20070;-31
2023/03/09 19:46:11;;;;;;;6.32;1.58;;;;;;;16.36;55.12;95073.59;10320134;28;20541;-31
2023/03/09 19:51:14;;;;;;;6.75;1.88;;;;;;;16.40;56.02;95071.03;10334286;28;20065;-31
2023/03/09 19:56:19;;;;;;;6.22;1.58;;;;;;;16.44;55.32;95074.34;10315478;28;20399;-31
2023/03/09 20:01:23;;;;;;;4.15;1.63;;;;;;;16.42;53.58;95064.25;10320708;28;20064;-31
2023/03/09 20:06:24;;;;;;;4.22;1.20;;;;;;;16.40;53.00;95055.88;10323408;28;20044;-31
2023/03/09 20:11:25;;;;;;;4.88;1.40;;;;;;;16.38;51.94;95046.66;10343842;28;20038;-31
2023/03/09 20:16:27;;;;;;;4.90;1.30;;;;;;;16.35;52.97;95047.50;10338889;28;20038;-31
2023/03/09 20:21:28;;;;;;;2.92;1.00;;;;;;;16.37;50.90;95040.75;10328745;28;20034;-32
2023/03/09 20:26:34;;;;;;;4.07;1.77;;;;;;;16.37;52.79;95035.72;10289603;28;20045;-32
2023/03/09 20:31:38;;;;;;;7.20;1.48;;;;;;;16.41;53.43;95047.44;10287141;28;20030;-32
2023/03/09 20:36:39;;;;;;;8.55;1.40;;;;;;;16.32;53.70;95052.63;10281035;28;20047;-31
2023/03/09 20:41:40;;;;;;;10.05;1.70;;;;;;;16.43;52.46;95050.75;10319485;28;20413;-31
2023/03/09 20:46:41;;;;;;;8.18;1.80;;;;;;;16.43;56.20;95050.75;10325474;28;20030;-31
2023/03/09 20:51:41;;;;;;;6.85;2.45;;;;;;;16.44;55.66;95057.47;10337874;28;20686;-31
2023/03/09 20:56:42;;;;;;;9.00;1.97;;;;;;;16.40;54.32;95052.50;10314966;28;20049;-29
2023/03/09 21:01:43;;;;;;;6.67;1.70;;;;;;;16.41;59.28;95039.88;10337338;28;20045;-28
2023/03/09 21:06:44;;;;;;;6.07;2.03;;;;;;;16.41;58.31;95026.38;10316836;28;20487;-29
2023/03/09 21:11:44;;;;;;;4.47;1.50;;;;;;;16.42;59.60;95039.00;10289648;28;20039;-29
2023/03/09 21:16:44;;;;;;;7.40;1.60;;;;;;;16.44;62.05;95046.56;10294406;28;20106;-29
2023/03/09 21:21:45;;;;;;;5.30;1.33;;;;;;;16.39;59.85;95064.31;10305318;28;20038;-29
2023/03/09 21:26:46;;;;;;;2.83;1.27;;;;;;;16.38;53.69;95057.56;10304766;28;20297;-29
2023/03/09 21:31:47;;;;;;;6.38;1.38;;;;;;;16.38;53.35;95067.69;10287092;28;20031;-29
2023/03/09 21:36:47;;;;;;;4.00;2.03;;;;;;;16.38;53.04;95067.69;10293872;28;20031;-30
2023/03/09 21:41:47;;;;;;;2.90;1.10;;;;;;;16.35;52.73;95052.56;10289295;28;20048;-28
2023/03/09 21:46:48;;;;;;;5.13;1.60;;;;;;;16.35;53.29;95041.66;10288688;28;20026;-29
2023/03/09 21:51:49;;;;;;;2.97;1.35;;;;;;;16.34;53.20;95040.78;10305062;28;20046;-29
2023/03/09 21:56:49;;;;;;;3.25;1.25;;;;;;;16.32;53.59;95031.59;10293719;28;20049;-29
2023/03/09 22:01:49;;;;;;;4.13;1.07;;;;;;;16.32;52.94;95026.53;10296541;28;20039;-28
2023/03/09 22:06:52;;;;;;;4.87;1.30;;;;;;;16.29;53.17;95012.25;10288888;28;20027;-29
2023/03/09 22:11:52;;;;;;;3.60;1.63;;;;;;;16.30;53.80;95008.88;10288269;28;20503;-30
2023/03/09 22:16:53;;;;;;;4.47;1.73;;;;;;;16.30;53.42;94997.97;10287476;28;20035;-30
2023/03/09 22:21:54;;;;;;;3.23;0.93;;;;;;;16.27;54.63;94988.75;10302750;28;20089;-29
2023/03/09 22:26:56;;;;;;;8.90;1.80;;;;;;;16.34;61.98;94974.31;10293225;28;20031;-29
2023/03/09 22:31:57;;;;;;;7.13;1.17;;;;;;;16.38;60.85;94961.63;10287558;28;20030;-36
2023/03/09 22:36:57;;;;;;;2.72;1.30;;;;;;;16.32;58.71;94964.25;10287987;28;20161;-29
2023/03/09 22:41:57;;;;;;;3.10;1.40;;;;;;;16.30;55.20;94947.47;10301122;28;20031;-30
2023/03/09 22:46:58;;;;;;;2.77;0.90;;;;;;;16.26;54.36;94931.53;10287756;28;20038;-29
2023/03/09 22:51:58;;;;;;;3.07;1.33;;;;;;;16.26;53.19;94911.34;10310839;28;20038;-29
2023/03/09 22:56:59;;;;;;;4.28;1.23;;;;;;;16.27;53.28;94913.00;10292582;28;20047;-29
2023/03/09 23:01:59;;;;;;;3.25;1.42;;;;;;;16.25;52.93;94899.59;10287122;28;20035;-31
2023/03/09 23:07:00;;;;;;;2.83;0.87;;;;;;;16.25;52.71;94886.97;10296432;28;20045;-30
2023/03/09 23:12:00;;;;;;;5.32;1.17;;;;;;;16.24;52.73;94872.69;10300451;28;20023;-29
2023/03/09 23:17:01;;;;;;;2.40;1.15;;;;;;;16.24;51.61;94867.63;10294333;28;20039;-29
2023/03/09 23:22:01;;;;;;;2.10;0.87;;;;;;;16.23;52.41;94855.88;10310546;28;20049;-29
2023/03/09 23:27:02;;;;;;;5.20;1.33;;;;;;;16.23;52.18;94827.25;10300032;28;20289;-29